Time;durP1;ratioP1;P1;durP2;ratioP2;P2;SDS_P1;SDS_P2;PMS_P1;PMS_P2;Temp;Humidity;BMP_temperature;BMP_pressure;BME280_temperature;BME280_humidity;BME280_pressure;Samples;Min_cycle;Max_cycle;Signal;HPM_P1;HPM_P2
2021/04/16 00:02:15;;;;;;;6.80;6.30;;;0.00;99.90;;;0.71;74.21;98685.16;5201622;28;20309;-59
2021/04/16 00:04:47;;;;;;;7.80;7.20;;;0.00;99.90;;;0.73;73.63;98674.53;5207579;28;20230;-58
2021/04/16 00:07:21;;;;;;;7.10;6.50;;;0.00;99.90;;;0.78;74.05;98670.91;5207450;28;20206;-59
2021/04/16 00:09:53;;;;;;;7.37;6.77;;;0.10;99.90;;;0.75;73.71;98678.13;5207376;28;20241;-57
2021/04/16 00:12:25;;;;;;;7.20;6.60;;;0.10;99.90;;;0.73;73.98;98672.03;5207197;28;20198;-59
2021/04/16 00:14:57;;;;;;;7.77;7.07;;;0.00;99.90;;;0.74;73.67;98661.22;5207356;28;20198;-59
2021/04/16 00:17:29;;;;;;;7.83;7.20;;;0.00;99.90;;;0.76;73.07;98669.84;5206953;28;20202;-58
2021/04/16 00:20:01;;;;;;;9.60;8.80;;;0.00;99.90;;;0.74;74.32;98671.28;5207341;28;20402;-57
2021/04/16 00:22:35;;;;;;;13.47;12.20;;;0.00;99.90;;;0.79;73.54;98665.13;5207202;28;20324;-59
2021/04/16 00:25:14;;;;;;;17.37;15.87;;;0.00;99.90;;;0.71;73.89;98660.88;5207088;28;20654;-58
2021/04/16 00:27:46;;;;;;;11.33;10.33;;;-0.10;99.90;;;0.72;73.48;98665.22;5207042;28;20208;-59
2021/04/16 00:30:23;;;;;;;8.17;7.57;;;-0.10;99.90;;;0.70;73.69;98658.22;5207076;28;20233;-56
2021/04/16 00:32:55;;;;;;;7.53;6.90;;;-0.20;99.90;;;0.57;73.12;98658.50;5207149;28;20198;-57
2021/04/16 00:35:27;;;;;;;7.57;6.97;;;-0.20;99.90;;;0.47;74.35;98654.13;5207073;28;20646;-58
2021/04/16 00:38:00;;;;;;;8.07;7.27;;;-0.20;99.90;;;0.51;74.15;98660.38;5206689;28;20208;-59
2021/04/16 00:40:36;;;;;;;7.80;7.20;;;-0.20;99.90;;;0.57;74.62;98650.97;5206751;28;20222;-58
2021/04/16 00:43:12;;;;;;;8.27;7.40;;;-0.20;99.90;;;0.54;73.73;98653.16;5206895;28;20319;-59
2021/04/16 00:45:45;;;;;;;8.37;7.60;;;-0.20;99.90;;;0.45;74.06;98648.91;5206671;28;20201;-56
2021/04/16 00:48:28;;;;;;;8.67;7.97;;;-0.40;99.90;;;0.43;74.86;98642.84;5206167;28;20289;-59
2021/04/16 00:51:04;;;;;;;8.33;7.67;;;-0.40;99.90;;;0.41;74.88;98643.41;5206853;28;20222;-59
2021/04/16 00:53:38;;;;;;;8.47;7.83;;;-0.40;99.90;;;0.49;74.68;98641.69;5206886;28;20188;-59
2021/04/16 00:56:11;;;;;;;8.10;7.37;;;-0.40;99.90;;;0.50;74.64;98648.53;5206609;28;20237;-58
2021/04/16 00:58:43;;;;;;;8.83;8.03;;;-0.40;99.90;;;0.47;74.45;98641.53;5206219;28;20206;-59
2021/04/16 01:01:15;;;;;;;7.50;6.90;;;-0.40;99.90;;;0.52;74.39;98632.00;5205683;28;20721;-59
2021/04/16 01:03:48;;;;;;;7.70;7.07;;;-0.30;99.90;;;0.50;74.52;98634.34;5206237;28;20222;-57
2021/04/16 01:06:22;;;;;;;7.30;6.60;;;-0.40;99.90;;;0.50;74.72;98628.41;5206152;28;20705;-56
2021/04/16 01:08:55;;;;;;;7.23;6.53;;;-0.40;99.90;;;0.38;74.52;98628.88;5206272;28;20691;-59
2021/04/16 01:11:29;;;;;;;6.60;6.10;;;-0.40;99.90;;;0.39;74.57;98634.78;5206144;28;20659;-59
2021/04/16 01:14:03;;;;;;;6.70;6.10;;;-0.40;99.90;;;0.37;75.10;98631.22;5206248;28;20229;-59
2021/04/16 01:16:36;;;;;;;7.10;6.47;;;-0.50;99.90;;;0.38;75.28;98633.91;5206013;28;20194;-56
2021/04/16 01:19:18;;;;;;;6.83;6.33;;;-0.50;99.90;;;0.27;75.12;98630.97;5206203;28;20208;-59
2021/04/16 01:21:57;;;;;;;7.93;7.20;;;-0.50;99.90;;;0.33;75.21;98626.59;5206480;28;20221;-58
2021/04/16 01:24:32;;;;;;;7.77;7.20;;;-0.50;99.90;;;0.38;75.21;98623.84;5206237;28;20566;-59
2021/04/16 01:27:11;;;;;;;7.67;7.00;;;-0.50;99.90;;;0.41;75.66;98623.28;5205899;28;20197;-59
2021/04/16 01:29:46;;;;;;;7.80;7.30;;;-0.50;99.90;;;0.28;75.28;98626.06;5205652;28;20229;-59
2021/04/16 01:32:27;;;;;;;8.67;7.73;;;-0.50;99.90;;;0.23;75.27;98622.19;5205994;28;20777;-57
2021/04/16 01:34:59;;;;;;;7.40;6.90;;;-0.60;99.90;;;0.21;76.22;98623.66;5205968;28;20305;-59
2021/04/16 01:37:32;;;;;;;8.57;7.87;;;-0.60;99.90;;;0.13;75.98;98614.38;5205605;28;20205;-58
2021/04/16 01:40:07;;;;;;;8.67;7.87;;;-0.60;99.90;;;0.10;76.36;98609.00;5205475;28;20307;-59
2021/04/16 01:42:40;;;;;;;9.10;8.30;;;-0.70;99.90;;;0.17;75.55;98611.44;5205898;28;20264;-58
2021/04/16 01:45:19;;;;;;;9.00;8.30;;;-0.60;99.90;;;0.16;76.30;98615.59;5205730;28;20670;-58
2021/04/16 01:47:55;;;;;;;8.73;8.03;;;-0.60;99.90;;;0.15;75.34;98613.81;5205063;28;20284;-57
2021/04/16 01:50:30;;;;;;;8.27;7.47;;;-0.60;99.90;;;0.17;75.69;98619.00;5205446;28;20689;-58
2021/04/16 01:53:03;;;;;;;7.83;7.13;;;-0.60;99.90;;;0.16;75.48;98610.56;5205784;28;20193;-59
2021/04/16 01:55:36;;;;;;;7.90;7.30;;;-0.60;99.90;;;0.18;76.27;98610.75;5205612;28;20713;-56
2021/04/16 01:58:08;;;;;;;7.90;7.20;;;-0.60;99.90;;;0.18;75.48;98610.75;5205783;28;20198;-59
2021/04/16 02:00:40;;;;;;;7.70;7.10;;;-0.60;99.90;;;0.15;76.02;98607.91;5205356;28;20258;-57
2021/04/16 02:03:13;;;;;;;8.20;7.40;;;-0.70;99.90;;;0.12;76.13;98607.56;5205146;28;20592;-57
2021/04/16 02:05:45;;;;;;;7.70;6.97;;;-0.70;99.90;;;0.10;76.17;98609.00;5205762;28;20202;-58
2021/04/16 02:08:17;;;;;;;7.87;7.20;;;-0.70;99.90;;;0.14;76.28;98601.06;5205249;28;20202;-59
2021/04/16 02:10:51;;;;;;;7.60;7.00;;;-0.70;99.90;;;0.06;75.51;98600.25;5205115;28;20240;-57
2021/04/16 02:13:23;;;;;;;7.40;6.90;;;-0.80;99.90;;;0.04;76.30;98603.31;5204765;28;20728;-57
2021/04/16 02:15:55;;;;;;;8.23;7.53;;;-0.70;99.90;;;0.02;76.17;98594.72;5205005;28;20632;-58
2021/04/16 02:18:27;;;;;;;7.93;7.20;;;-0.80;99.90;;;0.01;76.54;98592.94;5205328;28;20233;-58
2021/04/16 02:20:59;;;;;;;7.83;7.33;;;-0.80;99.90;;;0.00;75.68;98594.56;5205342;28;20229;-59
2021/04/16 02:23:31;;;;;;;7.77;7.07;;;-0.80;99.90;;;-0.01;75.92;98595.28;5205160;28;20353;-59
2021/04/16 02:26:05;;;;;;;7.40;6.73;;;-0.80;99.90;;;-0.06;75.74;98592.28;5205096;28;20198;-56
2021/04/16 02:28:37;;;;;;;7.40;6.87;;;-0.90;99.90;;;-0.16;76.06;98593.59;5204780;28;20232;-57
2021/04/16 02:31:09;;;;;;;7.57;6.93;;;-0.90;99.90;;;-0.12;76.16;98594.09;5205043;28;20214;-58
2021/04/16 02:33:42;;;;;;;7.47;6.87;;;-0.90;99.90;;;-0.17;76.57;98591.78;5205089;28;20289;-57
2021/04/16 02:36:16;;;;;;;8.17;7.57;;;-0.90;99.90;;;-0.20;76.34;98596.50;5204822;28;20212;-59
2021/04/16 02:38:48;;;;;;;8.33;7.67;;;-1.00;99.90;;;-0.21;76.82;98600.63;5205175;28;20202;-58
2021/04/16 02:41:21;;;;;;;7.93;7.33;;;-0.90;99.90;;;-0.18;76.17;98590.03;5204862;28;20301;-59
2021/04/16 02:43:53;;;;;;;8.37;7.67;;;-1.00;99.90;;;-0.14;76.79;98593.06;5204883;28;20249;-57
2021/04/16 02:46:26;;;;;;;8.63;7.83;;;-0.90;99.90;;;-0.16;76.27;98597.00;5204841;28;20240;-58
2021/04/16 02:48:58;;;;;;;8.87;8.23;;;-0.90;99.90;;;-0.15;76.98;98591.25;5204724;28;20198;-55
2021/04/16 02:51:31;;;;;;;8.23;7.37;;;-0.90;99.90;;;-0.20;76.90;98587.34;5204909;28;20664;-59
2021/04/16 02:54:04;;;;;;;8.10;7.50;;;-1.00;99.90;;;-0.21;76.33;98585.56;5204859;28;20271;-59
2021/04/16 02:56:38;;;;;;;8.33;7.63;;;-1.10;99.90;;;-0.20;76.03;98592.38;5204647;28;20669;-58
2021/04/16 02:59:10;;;;;;;8.20;7.50;;;-1.10;99.90;;;-0.30;75.96;98589.56;5204652;28;20289;-59
2021/04/16 03:01:42;;;;;;;8.77;8.10;;;-1.10;99.90;;;-0.29;77.18;98588.84;5204692;28;20760;-58
2021/04/16 03:04:15;;;;;;;8.83;8.10;;;-1.10;99.90;;;-0.32;77.00;98591.00;5204896;28;20332;-58
2021/04/16 03:06:47;;;;;;;8.30;7.70;;;-1.10;99.90;;;-0.30;76.67;98587.06;5204835;28;20301;-58
2021/04/16 03:09:20;;;;;;;7.97;7.37;;;-1.10;99.90;;;-0.36;75.66;98583.88;5204708;28;20209;-58
2021/04/16 03:11:53;;;;;;;9.07;8.13;;;-1.20;99.90;;;-0.50;75.99;98580.72;5204350;28;20240;-57
2021/04/16 03:14:25;;;;;;;9.23;8.57;;;-1.40;99.90;;;-0.51;77.08;98594.00;5205093;28;20194;-58
2021/04/16 03:16:57;;;;;;;8.27;7.60;;;-1.40;99.90;;;-0.55;76.36;98583.44;5204271;28;20309;-55
2021/04/16 03:19:29;;;;;;;7.97;7.37;;;-1.40;99.90;;;-0.52;77.29;98579.66;5204955;28;20264;-57
2021/04/16 03:22:02;;;;;;;7.40;6.80;;;-1.40;99.90;;;-0.59;77.28;98577.19;5204302;28;20202;-58
2021/04/16 03:24:34;;;;;;;8.03;7.33;;;-1.50;99.90;;;-0.56;77.48;98574.13;5205473;28;20233;-57
2021/04/16 03:27:07;;;;;;;7.97;7.27;;;-1.50;99.90;;;-0.59;77.55;98577.19;5208095;28;20578;-57
2021/04/16 03:29:39;;;;;;;8.13;7.50;;;-1.50;99.90;;;-0.60;77.08;98582.97;5208520;28;20623;-56
2021/04/16 03:32:11;;;;;;;8.67;7.87;;;-1.50;99.90;;;-0.69;76.55;98576.88;5207985;28;20200;-58
2021/04/16 03:34:44;;;;;;;8.30;7.50;;;-1.50;99.90;;;-0.73;77.09;98580.69;5208480;28;20205;-57
2021/04/16 03:37:16;;;;;;;8.57;7.60;;;-1.60;99.90;;;-0.75;76.81;98576.22;5207786;28;20196;-59
2021/04/16 03:39:48;;;;;;;8.67;7.97;;;-1.60;99.90;;;-0.73;76.69;98574.78;5208160;28;20217;-58
2021/04/16 03:42:21;;;;;;;8.13;7.40;;;-1.50;99.90;;;-0.74;77.99;98575.50;5207649;28;20280;-57
2021/04/16 03:44:53;;;;;;;7.47;6.93;;;-1.50;99.90;;;-0.73;77.67;98577.28;5208022;28;20211;-57
2021/04/16 03:47:25;;;;;;;7.90;7.20;;;-1.50;99.90;;;-0.74;77.85;98578.91;5207509;28;20297;-58
2021/04/16 03:49:58;;;;;;;8.80;8.07;;;-1.50;99.90;;;-0.68;76.20;98579.59;5208276;28;20237;-58
2021/04/16 03:52:30;;;;;;;7.70;7.13;;;-1.50;99.90;;;-0.70;77.02;98580.13;5207743;28;20241;-57
2021/04/16 03:55:03;;;;;;;7.43;6.83;;;-1.60;99.90;;;-0.73;76.98;98579.78;5207885;28;20204;-56
2021/04/16 03:57:36;;;;;;;8.40;7.57;;;-1.50;99.90;;;-0.77;76.68;98580.19;5207266;28;20296;-56
2021/04/16 04:00:13;;;;;;;8.17;7.47;;;-1.60;99.90;;;-0.77;77.95;98582.69;5206819;28;20310;-57
2021/04/16 04:02:45;;;;;;;7.60;6.77;;;-1.60;99.90;;;-0.83;77.76;98587.00;5206341;28;20331;-58
2021/04/16 04:05:19;;;;;;;9.03;8.23;;;-1.60;99.90;;;-0.87;76.60;98585.78;5207004;28;20198;-58
2021/04/16 04:07:51;;;;;;;8.20;7.40;;;-1.70;99.90;;;-0.83;77.23;98589.50;5207419;28;20200;-57
2021/04/16 04:10:23;;;;;;;8.97;8.17;;;-1.70;99.90;;;-0.96;77.80;98590.66;5207110;28;20325;-58
2021/04/16 04:12:56;;;;;;;8.40;7.70;;;-1.80;99.90;;;-0.92;78.27;98587.78;5207576;28;20202;-55
2021/04/16 04:15:28;;;;;;;8.20;7.47;;;-1.80;99.90;;;-0.93;78.44;98585.97;5206466;28;20691;-57
2021/04/16 04:18:02;;;;;;;8.47;7.67;;;-1.70;99.90;;;-0.89;77.80;98591.34;5198116;28;20285;-55
2021/04/16 04:20:37;;;;;;;8.50;7.60;;;-1.70;99.90;;;-0.84;78.49;98588.63;5206304;28;20245;-56
2021/04/16 04:23:10;;;;;;;8.90;8.20;;;-1.60;99.90;;;-0.80;77.19;98593.28;5207153;28;20233;-58
2021/04/16 04:25:42;;;;;;;8.10;7.43;;;-1.60;99.90;;;-0.76;77.36;98587.88;5206522;28;20204;-58
2021/04/16 04:28:15;;;;;;;8.60;7.77;;;-1.60;99.90;;;-0.72;77.61;98586.59;5209340;28;20586;-57
2021/04/16 04:30:47;;;;;;;8.17;7.50;;;-1.60;99.90;;;-0.80;77.23;98597.38;5206346;28;20677;-58
2021/04/16 04:33:19;;;;;;;9.00;8.20;;;-1.60;99.90;;;-0.83;78.03;98602.06;5206761;28;20293;-60
2021/04/16 04:35:52;;;;;;;11.30;8.93;;;-1.70;99.90;;;-0.84;78.22;98595.25;5205597;28;20202;-58
2021/04/16 04:38:24;;;;;;;9.60;8.70;;;-1.70;99.90;;;-0.86;77.57;98592.56;5213477;28;20722;-57
2021/04/16 04:40:56;;;;;;;8.87;8.17;;;-1.70;99.90;;;-0.87;77.12;98599.94;5207720;28;20759;-56
2021/04/16 04:43:29;;;;;;;9.10;8.30;;;-1.70;99.90;;;-0.81;77.17;98605.63;5215750;28;20213;-57
2021/04/16 04:46:04;;;;;;;10.10;9.13;;;-1.70;99.90;;;-0.84;77.09;98605.28;5206714;28;20197;-56
2021/04/16 04:48:36;;;;;;;9.93;9.10;;;-1.70;99.90;;;-0.77;78.27;98606.16;5206381;28;20209;-58
2021/04/16 04:51:08;;;;;;;9.13;8.33;;;-1.60;99.90;;;-0.74;78.20;98610.63;5205635;28;20241;-55
2021/04/16 04:53:40;;;;;;;9.97;9.07;;;-1.50;99.90;;;-0.70;77.71;98602.72;5205503;28;20194;-55
2021/04/16 04:56:12;;;;;;;9.97;9.13;;;-1.50;99.90;;;-0.66;77.26;98594.78;5198066;28;20568;-57
2021/04/16 04:58:45;;;;;;;9.70;8.80;;;-1.50;99.90;;;-0.58;76.93;98603.19;5201913;28;20237;-53
2021/04/16 05:01:17;;;;;;;8.57;7.77;;;-1.40;99.90;;;-0.51;76.59;98601.53;5209997;28;20713;-58
2021/04/16 05:03:49;;;;;;;9.67;8.67;;;-1.40;99.90;;;-0.42;77.12;98596.66;5206015;28;20253;-58
2021/04/16 05:06:21;;;;;;;9.23;8.43;;;-1.30;99.90;;;-0.37;76.47;98602.16;5212341;28;20293;-57
2021/04/16 05:08:53;;;;;;;9.43;8.63;;;-1.20;99.90;;;-0.36;76.37;98604.84;5205569;28;20204;-56
2021/04/16 05:11:25;;;;;;;9.07;8.17;;;-1.30;99.90;;;-0.36;76.22;98609.00;5209123;28;20249;-59
2021/04/16 05:13:58;;;;;;;8.93;8.13;;;-1.30;99.90;;;-0.31;75.32;98607.88;5209554;28;20198;-57
2021/04/16 05:16:30;;;;;;;8.77;8.00;;;-1.20;99.90;;;-0.29;75.52;98608.94;5208857;28;20220;-57
2021/04/16 05:19:03;;;;;;;9.13;8.40;;;-1.10;99.90;;;-0.14;76.49;98609.72;5205813;28;20580;-55
2021/04/16 05:21:37;;;;;;;8.47;7.77;;;-1.10;99.90;;;0.06;75.16;98611.91;5207199;28;20305;-58
2021/04/16 05:24:11;;;;;;;8.10;7.37;;;-0.90;99.90;;;0.48;73.87;98615.66;5205874;28;20686;-59
2021/04/16 05:26:43;;;;;;;8.40;7.60;;;-0.70;99.90;;;0.58;73.83;98612.53;5206318;28;20222;-58
2021/04/16 05:29:16;;;;;;;10.00;9.00;;;-0.50;99.90;;;0.69;72.85;98607.03;5209744;28;20212;-58
2021/04/16 05:31:48;;;;;;;10.03;9.00;;;-0.50;99.90;;;0.81;71.77;98604.94;5205512;28;20241;-55
2021/04/16 05:34:20;;;;;;;11.57;9.33;;;-0.50;99.90;;;0.76;71.51;98614.50;5206711;28;20197;-57
2021/04/16 05:36:53;;;;;;;9.53;8.73;;;-0.50;99.90;;;0.82;72.35;98607.59;5203752;28;20665;-61
2021/04/16 05:39:25;;;;;;;9.30;8.50;;;-0.40;99.90;;;1.19;71.69;98608.06;5207114;28;20198;-59
2021/04/16 05:41:57;;;;;;;9.13;8.33;;;-0.10;99.90;;;1.50;70.32;98608.00;5205271;28;20288;-54
2021/04/16 05:44:30;;;;;;;9.13;8.43;;;0.10;99.90;;;1.49;69.43;98607.88;5209201;28;20240;-56
2021/04/16 05:47:04;;;;;;;10.17;9.20;;;0.20;99.90;;;1.41;69.21;98606.19;5207665;28;20198;-58
2021/04/16 05:49:36;;;;;;;9.57;8.77;;;0.10;99.90;;;1.34;69.88;98615.63;5204870;28;20198;-59
2021/04/16 05:52:09;;;;;;;10.57;9.77;;;-0.10;99.90;;;1.22;70.60;98619.34;5205388;28;20202;-58
2021/04/16 05:54:41;;;;;;;17.60;16.03;;;-0.10;99.90;;;1.19;70.80;98626.59;5204560;28;20198;-59
2021/04/16 05:57:13;;;;;;;11.63;10.53;;;0.00;99.90;;;1.23;70.70;98613.59;5205139;28;20555;-58
2021/04/16 05:59:46;;;;;;;11.90;10.70;;;0.00;99.90;;;1.28;71.13;98619.09;5204733;28;20332;-58
2021/04/16 06:02:29;;;;;;;11.20;10.20;;;0.00;99.90;;;1.39;71.13;98612.69;5198736;28;20202;-59
2021/04/16 06:05:07;;;;;;;10.57;9.57;;;0.30;99.90;;;1.73;70.24;98612.91;5201418;28;20301;-57
2021/04/16 06:07:39;;;;;;;11.00;9.93;;;0.50;99.90;;;2.18;67.90;98620.88;5211726;28;20217;-59
2021/04/16 06:10:14;;;;;;;10.77;9.93;;;0.80;99.90;;;2.11;67.87;98620.97;5207272;28;20221;-57
2021/04/16 06:12:46;;;;;;;11.07;10.07;;;0.70;99.90;;;2.56;67.91;98626.34;5192596;28;20243;-58
2021/04/16 06:15:21;;;;;;;10.50;9.53;;;0.90;99.90;;;2.65;66.57;98626.38;5193667;28;20193;-59
2021/04/16 06:17:53;;;;;;;10.97;10.07;;;1.00;99.90;;;2.58;66.78;98624.00;5202418;28;20655;-57
2021/04/16 06:20:28;;;;;;;10.47;9.57;;;1.00;99.90;;;2.67;67.13;98615.69;5203706;28;20713;-59
2021/04/16 06:23:00;;;;;;;10.60;9.70;;;1.30;99.90;;;2.68;66.42;98620.00;5200376;28;20224;-59
2021/04/16 06:25:34;;;;;;;10.80;9.83;;;1.30;99.90;;;2.71;66.57;98620.28;5201966;28;20296;-59
2021/04/16 06:28:08;;;;;;;10.57;9.60;;;1.40;99.90;;;2.79;66.06;98623.59;5211300;28;20193;-58
2021/04/16 06:30:42;;;;;;;11.00;10.20;;;1.50;99.90;;;2.84;66.21;98624.06;5201183;28;20224;-59
2021/04/16 06:33:24;;;;;;;10.73;9.93;;;1.50;99.90;;;2.68;65.90;98619.09;5199666;28;20194;-59
2021/04/16 06:35:59;;;;;;;11.00;10.00;;;1.40;99.90;;;2.77;67.04;98621.66;5199294;28;20646;-57
2021/04/16 06:38:34;;;;;;;10.30;9.30;;;1.50;99.90;;;2.82;66.46;98628.06;5202257;28;20564;-55
2021/04/16 06:41:18;;;;;;;9.83;9.03;;;1.40;99.90;;;2.79;66.50;98621.06;5206541;28;20596;-56
2021/04/16 06:43:53;;;;;;;11.37;10.37;;;1.50;99.90;;;2.76;66.43;98619.88;5216688;28;20316;-59
2021/04/16 06:46:31;;;;;;;10.67;9.77;;;1.50;99.90;;;2.80;66.93;98615.25;5204361;28;20205;-58
2021/04/16 06:49:09;;;;;;;10.53;9.63;;;1.50;99.90;;;2.72;67.20;98613.63;5223600;28;20208;-58
2021/04/16 06:51:47;;;;;;;11.17;9.87;;;1.50;99.90;;;2.76;67.71;98614.81;5203442;28;20300;-58
2021/04/16 06:54:23;;;;;;;9.80;8.83;;;1.60;99.90;;;2.84;67.29;98614.84;5220481;28;20197;-53
2021/04/16 06:56:58;;;;;;;11.07;10.17;;;1.70;99.90;;;2.91;67.78;98614.69;5205706;28;20681;-56
2021/04/16 06:59:33;;;;;;;9.83;9.03;;;1.70;99.90;;;2.96;67.19;98607.59;5215347;28;20197;-59
2021/04/16 07:02:13;;;;;;;10.20;9.20;;;1.80;99.90;;;2.99;66.88;98605.34;5208704;28;20225;-59
2021/04/16 07:04:51;;;;;;;10.07;9.27;;;1.80;99.90;;;2.95;66.77;98603.28;5206420;28;20222;-58
2021/04/16 07:07:29;;;;;;;10.80;9.80;;;1.80;99.90;;;3.02;67.64;98608.19;5208689;28;20197;-57
2021/04/16 07:10:06;;;;;;;11.23;10.30;;;1.90;99.90;;;2.95;66.85;98595.72;5207211;28;20225;-58
2021/04/16 07:12:40;;;;;;;10.87;9.90;;;1.90;99.90;;;2.97;68.25;98611.00;5207733;28;20270;-58
2021/04/16 07:15:18;;;;;;;10.47;9.43;;;1.80;99.90;;;2.95;68.17;98608.34;5213181;28;20226;-59
2021/04/16 07:17:53;;;;;;;11.23;10.03;;;1.80;99.90;;;2.92;68.72;98610.56;5208309;28;20585;-56
2021/04/16 07:20:25;;;;;;;11.37;10.27;;;1.90;99.90;;;3.06;68.61;98606.84;5208118;28;20301;-57
2021/04/16 07:22:58;;;;;;;11.80;10.77;;;1.90;99.90;;;3.15;67.99;98610.28;5207198;28;20617;-57
2021/04/16 07:25:41;;;;;;;11.17;10.17;;;1.90;99.90;;;3.05;68.83;98620.22;5205671;28;20199;-59
2021/04/16 07:28:35;;;;;;;12.77;11.57;;;2.00;99.90;;;3.02;69.19;98620.81;5210696;28;20193;-59
2021/04/16 07:31:32;;;;;;;11.43;10.40;;;2.00;99.90;;;3.07;69.00;98621.28;5214801;28;20240;-57
2021/04/16 07:34:05;;;;;;;11.50;10.50;;;2.00;99.90;;;3.23;69.97;98611.00;5217622;28;20201;-57
2021/04/16 07:36:41;;;;;;;11.33;10.30;;;2.20;99.90;;;3.38;69.05;98612.50;5209815;28;20740;-57
2021/04/16 07:39:30;;;;;;;11.40;10.40;;;2.30;99.90;;;3.57;68.86;98605.94;5205178;28;20204;-57
2021/04/16 07:42:25;;;;;;;10.63;9.63;;;2.60;99.90;;;3.60;69.38;98606.22;5213614;28;20309;-57
2021/04/16 07:45:20;;;;;;;16.63;15.40;;;2.50;99.90;;;3.84;69.46;98611.88;5205000;28;20316;-55
2021/04/16 07:47:54;;;;;;;13.33;12.23;;;2.70;99.90;;;4.01;69.56;98611.81;5206575;28;20703;-59
2021/04/16 07:50:31;;;;;;;12.23;11.13;;;2.90;99.90;;;4.10;68.61;98610.91;5205766;28;20222;-59
2021/04/16 07:53:03;;;;;;;10.80;9.90;;;3.00;99.90;;;4.04;69.24;98612.09;5202978;28;20206;-53
2021/04/16 07:55:35;;;;;;;11.57;10.53;;;2.90;99.90;;;4.22;69.88;98614.56;5204511;28;20202;-57
2021/04/16 07:58:21;;;;;;;11.30;10.40;;;3.10;99.90;;;4.40;69.73;98611.22;5204640;28;20650;-57
2021/04/16 08:00:53;;;;;;;12.07;11.00;;;3.20;99.90;;;4.47;69.33;98606.00;5207459;28;20217;-59
2021/04/16 08:03:27;;;;;;;11.40;10.50;;;3.40;99.90;;;4.49;69.15;98611.19;5201208;28;20233;-56
2021/04/16 08:06:01;;;;;;;12.27;11.17;;;3.40;99.90;;;4.58;68.14;98614.59;5203358;28;20255;-57
2021/04/16 08:08:34;;;;;;;12.50;11.40;;;3.50;99.90;;;4.72;68.45;98608.22;5203639;28;20289;-58
2021/04/16 08:11:15;;;;;;;11.33;10.23;;;3.60;99.90;;;5.06;67.76;98607.13;5206501;28;20276;-58
2021/04/16 08:13:58;;;;;;;11.00;9.90;;;3.80;99.90;;;5.10;67.37;98603.25;5213566;28;20654;-57
2021/04/16 08:16:34;;;;;;;12.77;11.67;;;3.80;99.90;;;5.28;66.33;98604.88;5205736;28;20547;-57
2021/04/16 08:19:27;;;;;;;11.67;10.67;;;4.10;99.90;;;5.41;66.22;98607.75;5210131;28;20204;-57
2021/04/16 08:22:14;;;;;;;11.80;10.80;;;4.20;99.90;;;5.61;65.47;98612.06;5205950;28;20204;-58
2021/04/16 08:24:52;;;;;;;13.03;11.83;;;4.40;99.90;;;5.67;65.02;98603.22;5216479;28;20575;-58
2021/04/16 08:27:36;;;;;;;13.03;11.93;;;4.60;99.90;;;5.58;65.77;98610.88;5206072;28;20306;-59
2021/04/16 08:30:21;;;;;;;12.17;11.07;;;4.60;99.90;;;5.80;65.52;98612.00;5206321;28;20297;-59
2021/04/16 08:33:01;;;;;;;11.23;10.23;;;4.70;99.90;;;6.11;65.08;98614.72;5211991;28;20240;-57
2021/04/16 08:35:51;;;;;;;12.20;11.10;;;4.90;99.90;;;6.05;63.81;98621.78;5205448;28;20225;-57
2021/04/16 08:38:28;;;;;;;11.80;10.80;;;4.90;99.90;;;6.20;64.24;98617.16;5220574;28;20204;-59
2021/04/16 08:41:04;;;;;;;11.20;10.20;;;5.00;99.90;;;6.20;63.61;98618.03;5210345;28;20593;-59
2021/04/16 08:43:41;;;;;;;10.80;9.90;;;5.00;99.90;;;6.40;62.83;98616.31;5219297;28;20215;-57
2021/04/16 08:46:27;;;;;;;11.30;10.30;;;5.20;99.90;;;6.45;63.11;98610.00;5212771;28;20728;-59
2021/04/16 08:49:08;;;;;;;10.80;9.90;;;5.20;99.90;;;6.30;63.10;98615.53;5204472;28;20614;-59
2021/04/16 08:51:46;;;;;;;10.83;10.03;;;5.10;99.90;;;6.07;63.42;98613.56;5205259;28;20222;-58
2021/04/16 08:54:25;;;;;;;11.37;10.27;;;4.90;99.90;;;6.25;63.93;98611.72;5188560;28;20598;-59
2021/04/16 08:57:01;;;;;;;12.17;10.97;;;5.00;99.90;;;6.32;63.60;98608.97;5213873;28;20655;-55
2021/04/16 08:59:49;;;;;;;12.07;11.17;;;5.10;99.90;;;6.26;64.24;98608.41;5218985;28;20219;-57
2021/04/16 09:02:24;;;;;;;13.63;12.53;;;5.00;99.90;;;6.16;63.13;98612.59;5207991;28;20194;-59
2021/04/16 09:05:05;;;;;;;11.90;10.80;;;4.90;99.90;;;6.14;63.57;98614.97;5216089;28;20226;-56
2021/04/16 09:07:41;;;;;;;11.17;10.17;;;4.90;99.90;;;6.24;63.78;98615.03;5202183;28;20281;-58
2021/04/16 09:10:42;;;;;;;11.67;10.67;;;5.00;99.90;;;6.24;63.94;98615.03;5208361;28;20239;-58
2021/04/16 09:13:55;;;;;;;11.23;10.27;;;5.00;99.90;;;6.03;64.12;98613.16;5204293;28;20197;-58
2021/04/16 09:16:57;;;;;;;11.33;10.33;;;4.80;99.90;;;5.79;65.04;98612.78;5205573;28;20297;-59
2021/04/16 09:20:00;;;;;;;10.97;10.17;;;4.70;99.90;;;6.05;64.33;98606.56;5205675;28;20271;-58
2021/04/16 09:22:43;;;;;;;11.60;10.60;;;4.80;99.90;;;5.73;65.11;98617.31;5205853;28;20193;-59
2021/04/16 09:25:47;;;;;;;11.27;10.37;;;4.70;99.90;;;5.84;65.08;98613.19;5192380;28;20220;-57
2021/04/16 09:29:00;;;;;;;10.20;9.40;;;4.80;99.90;;;6.27;63.89;98619.47;5204286;28;20665;-57
2021/04/16 09:31:53;;;;;;;11.00;10.20;;;5.10;99.90;;;6.36;63.10;98615.19;5206677;28;20263;-57
2021/04/16 09:34:28;;;;;;;10.27;9.47;;;5.30;99.90;;;6.45;63.31;98608.34;5199834;28;20229;-57
2021/04/16 09:37:25;;;;;;;10.33;9.53;;;5.40;99.90;;;6.39;62.82;98609.47;5205622;28;20675;-59
2021/04/16 09:40:06;;;;;;;11.10;10.20;;;5.30;99.90;;;6.52;62.39;98602.13;5202870;28;20662;-59
2021/04/16 09:42:42;;;;;;;10.63;9.73;;;5.30;99.90;;;6.70;63.08;98601.16;5205372;28;20281;-57
2021/04/16 09:45:40;;;;;;;9.80;9.00;;;5.60;99.90;;;7.04;61.21;98601.41;5224060;28;20239;-59
2021/04/16 09:48:26;;;;;;;10.30;9.60;;;5.80;99.90;;;7.28;60.32;98594.00;5205774;28;20233;-58
2021/04/16 09:51:35;;;;;;;9.67;8.87;;;6.20;99.90;;;7.40;59.32;98592.47;5207062;28;20304;-59
2021/04/16 09:54:39;;;;;;;9.90;9.10;;;6.30;99.90;;;7.47;58.66;98593.84;5202046;28;20654;-60
2021/04/16 09:57:45;;;;;;;10.10;9.37;;;6.50;99.90;;;7.72;57.90;98594.16;5214733;28;20695;-59
2021/04/16 10:01:03;;;;;;;9.83;9.03;;;6.50;99.90;;;8.02;55.79;98594.03;5203685;28;20217;-58
2021/04/16 10:03:48;;;;;;;9.40;8.70;;;6.90;99.90;;;8.35;56.61;98589.78;5205679;28;20681;-57
2021/04/16 10:06:29;;;;;;;9.43;8.70;;;7.30;99.90;;;8.27;55.54;98585.75;5207624;28;20197;-59
2021/04/16 10:09:24;;;;;;;10.20;9.43;;;7.30;99.90;;;8.62;55.84;98582.53;5203024;28;20202;-56
2021/04/16 10:11:59;;;;;;;9.33;8.63;;;7.70;99.90;;;8.79;54.86;98592.34;5218797;22;20221;-61
2021/04/16 10:14:35;;;;;;;9.27;8.57;;;7.90;99.50;;;8.98;53.87;98586.97;5210608;28;20227;-61
2021/04/16 10:17:25;;;;;;;9.40;8.70;;;7.90;99.20;;;8.23;55.19;98583.75;5210464;28;20193;-61
2021/04/16 10:20:12;;;;;;;9.33;8.63;;;7.50;99.30;;;8.35;55.48;98582.16;5205308;28;20202;-61
2021/04/16 10:22:45;;;;;;;6.90;6.40;;;7.40;99.90;;;8.28;52.52;98582.47;5199161;28;20328;-61
2021/04/16 12:38:26;;;;;;;6.87;6.33;;;6.70;97.10;;;7.77;52.61;98555.59;5186869;28;20297;-60
2021/04/16 12:40:58;;;;;;;6.83;6.40;;;6.70;97.10;;;7.66;53.34;98557.28;5186152;28;20221;-60
2021/04/16 12:43:30;;;;;;;6.63;6.23;;;6.60;97.70;;;7.53;53.16;98556.19;5178746;28;20198;-60
2021/04/16 12:46:07;;;;;;;6.37;5.97;;;6.60;97.60;;;7.60;53.46;98551.69;5166318;28;20196;-60
2021/04/16 12:48:39;;;;;;;7.10;6.63;;;6.60;97.60;;;7.66;53.98;98557.28;5177414;28;20654;-60
2021/04/16 12:51:13;;;;;;;5.97;5.57;;;6.60;97.90;;;7.56;53.52;98557.31;5178130;28;20618;-60
2021/04/16 12:53:45;;;;;;;6.43;5.93;;;6.60;97.10;;;7.59;53.45;98555.03;5178432;28;20230;-59
2021/04/16 12:56:22;;;;;;;6.30;5.90;;;6.60;97.50;;;7.53;52.50;98552.00;5193278;28;20197;-60
2021/04/16 12:59:05;;;;;;;6.17;5.77;;;6.50;96.70;;;7.43;52.89;98554.56;5179011;28;20195;-60
2021/04/16 13:01:38;;;;;;;6.37;5.90;;;6.50;97.10;;;7.57;52.50;98546.38;5172367;28;20310;-59
2021/04/16 13:04:12;;;;;;;6.13;5.73;;;6.60;96.70;;;7.50;52.01;98549.22;5185012;28;20258;-59
2021/04/16 13:06:45;;;;;;;6.33;5.93;;;6.60;96.40;;;7.55;52.37;98552.09;5168633;28;20689;-60
2021/04/16 13:09:19;;;;;;;6.17;5.73;;;6.70;96.80;;;7.59;52.92;98544.84;5168662;28;20230;-60
2021/04/16 13:11:51;;;;;;;5.93;5.53;;;6.60;96.90;;;7.80;53.01;98547.31;5179142;28;20236;-59
2021/04/16 13:14:24;;;;;;;6.37;5.87;;;6.80;97.60;;;7.90;52.08;98547.28;5193402;28;20293;-60
2021/04/16 13:16:56;;;;;;;6.73;6.20;;;6.70;96.30;;;7.80;51.83;98534.59;5183007;28;20294;-60